Springfield, IL (62712)

7:21 PM CDT on April 25, 2017 (GMT -0500)
Oak Hill | | Change Station

Elev 581 ft 39.74 °N, 89.56 °W | Updated 31 seconds ago

Mostly Cloudy
Mostly Cloudy
75.5 °F
Feels Like 78 °F
N
9.0
Wind Variable Wind from SSW

Today
High -- | Low -- °F
--% Chance of Precip.
Yesterday
High -- | Low -- °F
Precip. -- in
Pressure 29.48 in
Visibility 10.0 miles
Clouds Clear
Heat Index 78 °F
Dew Point 55 °F
Humidity 50%
Rainfall 0.09 in
Snow Depth Not available.
6:06 AM 7:46 PM
Waning Crescent, 0% visible
METAR KSPI 252352Z 18014G28KT 10SM CLR 25/09 A2949 RMK AO2 PK WND 15032/2317 SLP981 T02500089 10283 20239 55001
Pressure 29.48 in
Visibility 10.0 miles
Clouds Clear
Heat Index 78 °F
Dew Point 55 °F
Humidity 50%
Rainfall 0.09 in
Snow Depth Not available.
6:06 AM 7:46 PM
Waning Crescent, 0% visible
METAR KSPI 252352Z 18014G28KT 10SM CLR 25/09 A2949 RMK AO2 PK WND 15032/2317 SLP981 T02500089 10283 20239 55001

Get Severe Weather Alerts

Thanks for signing up!

Be on the lookout for a verification email in your inbox.

You'll start receiving the daily forecast at 8 AM.

×

10-Day Weather Forecast

Almanac

Astronomy

Apr. 25, 2017 Rise Set
Actual Time
Civil Twilight
Nautical Twilight
Astronomical Twilight
Moon
Length of Visible Light
Length of Day
Tomorrow will be .
, % of the Moon is Illuminated

Today's Extremes

State Highs State Lows

Community

WunderPhotos

WunderBlog® & News

Nearby

Air Quality

  Air Quality AQ Index Pollutant
Not available.

Snow Depth

Station Depth Elevation

Earthquake Activity

City Distance Mag. Time & Date
Minimum magnitude displayed is 2.5.

Coastal Water Temperatures

Place Temperature

Stations

Nearby Weather Stations

Station Location Temp. Windchill Dew Point Humidity Wind Precip. Elev Updated Type
                   

Watches & Warnings

There are currently no watches in effect.